Time;durP1;ratioP1;P1;durP2;ratioP2;P2;SDS_P1;SDS_P2;PMS_P1;PMS_P2;Temp;Humidity;BMP_temperature;BMP_pressure;BME280_temperature;BME280_humidity;BME280_pressure;Samples;Min_cycle;Max_cycle;Signal;HPM_P1;HPM_P2
2022/04/27 00:00:58;;;;;;;4.55;3.28;;;;;;;;;;5094312;28;20020;-87
2022/04/27 00:03:23;;;;;;;4.18;2.90;;;;;;;;;;5094721;28;20032;-91
2022/04/27 00:05:49;;;;;;;5.65;2.80;;;;;;;;;;5093306;28;20116;-89
2022/04/27 00:08:14;;;;;;;4.50;3.08;;;;;;;;;;5093363;28;20077;-88
2022/04/27 00:10:40;;;;;;;4.65;2.90;;;;;;;;;;5093116;28;20031;-88
2022/04/27 00:13:06;;;;;;;3.63;2.70;;;;;;;;;;5093715;28;20424;-90
2022/04/27 00:15:31;;;;;;;5.78;3.38;;;;;;;;;;5094325;28;20404;-89
2022/04/27 00:17:57;;;;;;;5.50;2.85;;;;;;;;;;5092964;28;20035;-87
2022/04/27 00:20:22;;;;;;;2.72;2.42;;;;;;;;;;5092429;28;20031;-88
2022/04/27 00:22:48;;;;;;;4.75;2.70;;;;;;;;;;5092331;28;20062;-87
2022/04/27 00:25:13;;;;;;;5.85;2.67;;;;;;;;;;5092376;28;20020;-88
2022/04/27 00:27:39;;;;;;;3.88;2.75;;;;;;;;;;5093881;28;20446;-84
2022/04/27 00:30:05;;;;;;;5.30;2.80;;;;;;;;;;5091959;28;20507;-85
2022/04/27 00:32:31;;;;;;;2.97;2.67;;;;;;;;;;5093411;28;20023;-86
2022/04/27 00:34:56;;;;;;;3.95;3.00;;;;;;;;;;5091944;28;20111;-87
2022/04/27 00:37:22;;;;;;;3.33;2.72;;;;;;;;;;5091809;28;20880;-88
2022/04/27 00:39:47;;;;;;;3.42;2.83;;;;;;;;;;5092394;28;20032;-87
2022/04/27 00:42:17;;;;;;;3.92;2.92;;;;;;;;;;5092420;28;20024;-85
2022/04/27 00:44:44;;;;;;;4.47;2.92;;;;;;;;;;5091732;28;20372;-88
2022/04/27 00:47:14;;;;;;;4.07;2.72;;;;;;;;;;5093802;28;20028;-88
2022/04/27 00:49:46;;;;;;;4.10;2.92;;;;;;;;;;5093206;28;20024;-88
2022/04/27 00:52:13;;;;;;;3.70;2.70;;;;;;;;;;5092191;28;20045;-87
2022/04/27 00:54:43;;;;;;;4.95;2.92;;;;;;;;;;5092470;28;20020;-90
2022/04/27 00:57:10;;;;;;;4.00;2.67;;;;;;;;;;5088549;28;20028;-89
2022/04/27 00:59:36;;;;;;;4.30;2.80;;;;;;;;;;5091308;28;20073;-87
2022/04/27 01:02:04;;;;;;;4.93;3.15;;;;;;;;;;5091546;28;20028;-88
2022/04/27 01:04:31;;;;;;;4.85;2.90;;;;;;;;;;5093184;28;20024;-89
2022/04/27 01:06:56;;;;;;;3.67;2.97;;;;;;;;;;5091537;28;20024;-88
2022/04/27 01:09:24;;;;;;;4.60;2.80;;;;;;;;;;5091424;28;20073;-87
2022/04/27 01:11:49;;;;;;;4.65;3.15;;;;;;;;;;5093120;28;20020;-88
2022/04/27 01:14:15;;;;;;;5.45;3.30;;;;;;;;;;5091841;28;20042;-89
2022/04/27 01:16:40;;;;;;;5.07;2.78;;;;;;;;;;5093065;28;20020;-88
2022/04/27 01:19:06;;;;;;;3.80;3.05;;;;;;;;;;5093028;28;20399;-89
2022/04/27 01:21:32;;;;;;;3.92;2.85;;;;;;;;;;5091279;28;20369;-87
2022/04/27 01:23:58;;;;;;;5.30;2.90;;;;;;;;;;5091424;28;20059;-87
2022/04/27 01:26:24;;;;;;;4.57;3.05;;;;;;;;;;5091517;28;20075;-88
2022/04/27 01:28:50;;;;;;;9.48;3.60;;;;;;;;;;5091258;28;20028;-89
2022/04/27 01:31:16;;;;;;;3.30;2.90;;;;;;;;;;5092872;28;20488;-88
2022/04/27 01:33:41;;;;;;;4.13;3.00;;;;;;;;;;5092643;28;20032;-87
2022/04/27 01:36:08;;;;;;;4.78;3.28;;;;;;;;;;5092519;28;20040;-87
2022/04/27 01:38:42;;;;;;;4.55;3.40;;;;;;;;;;5091319;28;20028;-88
2022/04/27 01:41:08;;;;;;;5.13;3.55;;;;;;;;;;5090036;28;20530;-89
2022/04/27 01:43:35;;;;;;;6.50;3.83;;;;;;;;;;5092848;28;20017;-89
2022/04/27 01:46:01;;;;;;;7.45;3.45;;;;;;;;;;5091157;28;20027;-87
2022/04/27 01:48:27;;;;;;;6.00;3.33;;;;;;;;;;5091031;28;20032;-88
2022/04/27 01:50:53;;;;;;;3.75;3.10;;;;;;;;;;5091128;28;20531;-87
2022/04/27 01:56:04;;;;;;;4.07;3.08;;;;;;;;;;5089706;28;20085;-89
2022/04/27 01:58:29;;;;;;;4.13;3.15;;;;;;;;;;5092728;28;20020;-88
2022/04/27 02:00:55;;;;;;;5.80;3.13;;;;;;;;;;5091105;28;20441;-88
2022/04/27 02:03:21;;;;;;;4.15;3.15;;;;;;;;;;5092420;28;20028;-86
2022/04/27 02:05:47;;;;;;;3.47;3.05;;;;;;;;;;5093157;28;20028;-87
2022/04/27 02:08:13;;;;;;;7.85;2.90;;;;;;;;;;5096485;28;20031;-87
2022/04/27 02:10:39;;;;;;;4.82;3.20;;;;;;;;;;5091790;28;20028;-88
2022/04/27 02:13:09;;;;;;;4.75;3.70;;;;;;;;;;5091440;28;20111;-87
2022/04/27 02:15:35;;;;;;;4.85;3.42;;;;;;;;;;5095176;28;20020;-86
2022/04/27 02:18:02;;;;;;;6.28;3.60;;;;;;;;;;5094065;28;20024;-86
2022/04/27 02:20:28;;;;;;;6.95;2.83;;;;;;;;;;5091828;28;20085;-86
2022/04/27 02:22:54;;;;;;;5.00;3.20;;;;;;;;;;5090878;28;20765;-88
2022/04/27 02:25:20;;;;;;;4.20;3.50;;;;;;;;;;5090940;28;20157;-88
2022/04/27 02:27:46;;;;;;;4.07;3.10;;;;;;;;;;5091203;28;20027;-90
2022/04/27 02:30:12;;;;;;;6.13;3.60;;;;;;;;;;5091916;28;20035;-86
2022/04/27 02:32:39;;;;;;;4.32;3.22;;;;;;;;;;5094358;28;20032;-86
2022/04/27 02:35:06;;;;;;;5.03;2.90;;;;;;;;;;5092096;28;20454;-88
2022/04/27 02:37:32;;;;;;;3.88;3.13;;;;;;;;;;5090554;28;20396;-87
2022/04/27 02:39:58;;;;;;;7.15;3.55;;;;;;;;;;5093980;28;20031;-87
2022/04/27 02:42:24;;;;;;;6.32;3.20;;;;;;;;;;5095459;28;20455;-87
2022/04/27 02:44:49;;;;;;;6.20;3.28;;;;;;;;;;5096142;28;20020;-87
2022/04/27 02:47:15;;;;;;;7.47;3.00;;;;;;;;;;5096588;28;20032;-86
2022/04/27 02:52:24;;;;;;;4.25;3.20;;;;;;;;;;5092135;28;20088;-87
2022/04/27 02:54:50;;;;;;;4.43;3.20;;;;;;;;;;5095262;28;20027;-90
2022/04/27 02:57:16;;;;;;;6.07;3.15;;;;;;;;;;5095503;28;20031;-87
2022/04/27 02:59:45;;;;;;;4.45;3.13;;;;;;;;;;5095795;28;20114;-89
2022/04/27 03:02:11;;;;;;;4.80;3.07;;;;;;;;;;5095999;28;20421;-87
2022/04/27 03:04:36;;;;;;;7.07;3.53;;;;;;;;;;5095743;28;20028;-87
2022/04/27 03:07:02;;;;;;;3.72;2.70;;;;;;;;;;5095815;28;20024;-89
2022/04/27 03:09:29;;;;;;;4.68;3.40;;;;;;;;;;5094462;28;20074;-87
2022/04/27 03:11:55;;;;;;;5.55;3.00;;;;;;;;;;5095632;28;20024;-87
2022/04/27 03:14:20;;;;;;;7.63;2.90;;;;;;;;;;5096898;28;20040;-87
2022/04/27 03:16:47;;;;;;;4.63;2.80;;;;;;;;;;5094922;28;20035;-88
2022/04/27 03:19:12;;;;;;;5.18;2.88;;;;;;;;;;5094137;28;20470;-89
2022/04/27 03:21:38;;;;;;;3.55;2.92;;;;;;;;;;5095372;28;20099;-88
2022/04/27 03:24:05;;;;;;;3.72;2.72;;;;;;;;;;5095646;28;20073;-88
2022/04/27 03:26:34;;;;;;;3.67;3.03;;;;;;;;;;5094355;28;20089;-88
2022/04/27 03:28:59;;;;;;;4.53;2.97;;;;;;;;;;5098043;28;20028;-89
2022/04/27 03:31:25;;;;;;;6.07;3.20;;;;;;;;;;5096187;28;20020;-88
2022/04/27 03:33:51;;;;;;;4.82;3.75;;;;;;;;;;5095590;28;20542;-87
2022/04/27 03:36:17;;;;;;;5.10;3.10;;;;;;;;;;5093485;28;20043;-87
2022/04/27 03:38:43;;;;;;;6.43;3.22;;;;;;;;;;5093986;28;20455;-86
2022/04/27 03:41:08;;;;;;;4.63;2.97;;;;;;;;;;5090043;28;20024;-86
2022/04/27 03:43:34;;;;;;;5.80;3.28;;;;;;;;;;5094876;28;20047;-87
2022/04/27 03:46:00;;;;;;;6.15;3.75;;;;;;;;;;5092345;28;20024;-87
2022/04/27 03:48:26;;;;;;;5.13;3.05;;;;;;;;;;5094003;28;20165;-89
2022/04/27 03:50:52;;;;;;;5.10;3.42;;;;;;;;;;5092384;28;20103;-88
2022/04/27 03:53:17;;;;;;;6.15;3.80;;;;;;;;;;5091226;28;20032;-86
2022/04/27 03:55:43;;;;;;;8.68;4.57;;;;;;;;;;5090213;28;20027;-88
2022/04/27 03:58:08;;;;;;;5.28;3.95;;;;;;;;;;5093386;28;20082;-88
2022/04/27 04:00:34;;;;;;;5.57;3.75;;;;;;;;;;5093314;28;20016;-88
2022/04/27 04:03:01;;;;;;;6.78;3.70;;;;;;;;;;5094652;28;20102;-85
2022/04/27 04:05:28;;;;;;;4.65;3.97;;;;;;;;;;5093500;28;20028;-86
2022/04/27 04:07:53;;;;;;;4.82;3.80;;;;;;;;;;5092474;28;20081;-84
2022/04/27 04:10:19;;;;;;;4.78;3.08;;;;;;;;;;5092412;28;20036;-85
2022/04/27 04:12:47;;;;;;;6.53;3.20;;;;;;;;;;5093035;28;20020;-85
2022/04/27 04:15:14;;;;;;;4.22;3.58;;;;;;;;;;5089329;28;20035;-85
2022/04/27 04:17:44;;;;;;;6.55;3.17;;;;;;;;;;5094011;28;20024;-84
2022/04/27 04:20:13;;;;;;;4.57;3.08;;;;;;;;;;5090222;28;20027;-86
2022/04/27 04:22:39;;;;;;;4.63;3.40;;;;;;;;;;5092135;28;20037;-86
2022/04/27 04:30:33;;;;;;;7.05;3.58;;;;;;;;;;5089569;28;20928;-85
2022/04/27 04:32:58;;;;;;;5.30;4.25;;;;;;;;;;5093229;28;20028;-85
2022/04/27 04:35:24;;;;;;;4.53;4.07;;;;;;;;;;5093255;28;20380;-87
2022/04/27 04:37:49;;;;;;;4.50;3.70;;;;;;;;;;5091014;28;20055;-85
2022/04/27 04:40:15;;;;;;;6.32;3.60;;;;;;;;;;5090878;28;20020;-87
2022/04/27 04:42:40;;;;;;;5.70;4.03;;;;;;;;;;5092268;28;20107;-85
2022/04/27 04:45:06;;;;;;;8.50;5.60;;;;;;;;;;5091732;28;20471;-85
2022/04/27 04:47:32;;;;;;;7.18;5.60;;;;;;;;;;5091743;28;20106;-86
2022/04/27 04:49:57;;;;;;;6.55;5.50;;;;;;;;;;5090715;28;20107;-85
2022/04/27 04:52:23;;;;;;;8.77;5.13;;;;;;;;;;5092755;28;20032;-88
2022/04/27 04:54:49;;;;;;;6.13;5.50;;;;;;;;;;5091303;28;20032;-86
2022/04/27 04:57:14;;;;;;;7.18;5.55;;;;;;;;;;5091728;28;20165;-85
2022/04/27 04:59:40;;;;;;;8.05;5.25;;;;;;;;;;5089146;28;20020;-87
2022/04/27 05:02:06;;;;;;;8.10;5.22;;;;;;;;;;5088680;28;20050;-86
2022/04/27 05:04:32;;;;;;;7.20;5.75;;;;;;;;;;5087671;28;20019;-86
2022/04/27 05:06:57;;;;;;;7.95;5.47;;;;;;;;;;5086621;28;20383;-85
2022/04/27 05:09:23;;;;;;;7.50;5.30;;;;;;;;;;5090528;28;20028;-87
2022/04/27 05:11:48;;;;;;;9.88;6.30;;;;;;;;;;5093276;28;20035;-86
2022/04/27 05:14:13;;;;;;;10.68;6.03;;;;;;;;;;5092972;28;20031;-86
2022/04/27 05:16:39;;;;;;;8.85;6.97;;;;;;;;;;5091326;28;20056;-87
2022/04/27 05:19:04;;;;;;;7.85;6.47;;;;;;;;;;5088552;28;20039;-87
2022/04/27 05:21:30;;;;;;;6.95;5.93;;;;;;;;;;5092799;28;20028;-86
2022/04/27 05:23:57;;;;;;;11.18;5.75;;;;;;;;;;5092563;28;20043;-84
2022/04/27 05:26:22;;;;;;;8.55;6.50;;;;;;;;;;5092916;28;20395;-87
2022/04/27 05:34:16;;;;;;;8.98;7.30;;;;;;;;;;5092786;28;20035;-86
2022/04/27 05:36:41;;;;;;;12.40;7.63;;;;;;;;;;5091152;28;20036;-87
2022/04/27 05:39:07;;;;;;;7.57;6.78;;;;;;;;;;5086967;28;20039;-85
2022/04/27 05:41:34;;;;;;;9.68;6.95;;;;;;;;;;5074360;28;20048;-88
2022/04/27 05:44:02;;;;;;;14.65;7.43;;;;;;;;;;5091004;28;20020;-86
2022/04/27 05:46:28;;;;;;;9.25;6.55;;;;;;;;;;5092292;28;20493;-87
2022/04/27 05:48:53;;;;;;;8.48;6.40;;;;;;;;;;5091923;28;20031;-84
2022/04/27 05:51:19;;;;;;;10.70;6.20;;;;;;;;;;5089556;28;20064;-90
2022/04/27 05:53:44;;;;;;;10.63;6.03;;;;;;;;;;5091160;28;20032;-85
2022/04/27 05:56:10;;;;;;;7.75;6.13;;;;;;;;;;5091761;28;21292;-85
2022/04/27 05:58:35;;;;;;;9.38;6.20;;;;;;;;;;5086143;28;20028;-87
2022/04/27 06:01:01;;;;;;;7.70;5.60;;;;;;;;;;5090175;28;20103;-84
2022/04/27 06:03:26;;;;;;;8.73;6.15;;;;;;;;;;5091805;28;20030;-85
2022/04/27 06:05:52;;;;;;;8.90;5.80;;;;;;;;;;5091561;28;20103;-84
2022/04/27 06:08:17;;;;;;;7.90;6.00;;;;;;;;;;5092068;28;20055;-86
2022/04/27 06:10:49;;;;;;;8.50;6.25;;;;;;;;;;5091949;28;20172;-85
2022/04/27 06:13:14;;;;;;;10.07;6.75;;;;;;;;;;5090044;28;20040;-85
2022/04/27 06:15:39;;;;;;;7.38;5.95;;;;;;;;;;5091619;28;20502;-86
2022/04/27 06:18:06;;;;;;;11.50;6.32;;;;;;;;;;5091687;28;20034;-85
2022/04/27 06:20:31;;;;;;;10.57;6.80;;;;;;;;;;5092052;28;20024;-86
2022/04/27 06:22:57;;;;;;;10.23;6.78;;;;;;;;;;5090883;28;20030;-85
2022/04/27 06:25:25;;;;;;;8.52;6.32;;;;;;;;;;5092029;28;20059;-85
2022/04/27 06:27:51;;;;;;;8.10;6.03;;;;;;;;;;5091902;28;20020;-85
2022/04/27 06:30:17;;;;;;;12.18;7.40;;;;;;;;;;5090557;28;20115;-85
2022/04/27 06:32:42;;;;;;;8.80;6.43;;;;;;;;;;5091811;28;20383;-86
2022/04/27 06:35:09;;;;;;;8.73;6.72;;;;;;;;;;5087702;28;20028;-87
2022/04/27 06:37:35;;;;;;;10.30;7.65;;;;;;;;;;5090767;28;20040;-84
2022/04/27 06:40:03;;;;;;;9.00;6.50;;;;;;;;;;5086470;28;20072;-84
2022/04/27 06:42:29;;;;;;;12.07;6.63;;;;;;;;;;5091505;28;20092;-86
2022/04/27 06:44:55;;;;;;;10.43;6.93;;;;;;;;;;5090448;28;20032;-85
2022/04/27 06:47:20;;;;;;;10.23;6.65;;;;;;;;;;5090158;28;20085;-86
2022/04/27 06:49:45;;;;;;;11.05;6.22;;;;;;;;;;5091512;28;20080;-85
2022/04/27 06:52:11;;;;;;;19.35;14.68;;;;;;;;;;5091579;28;20047;-85
2022/04/27 06:54:39;;;;;;;16.33;9.95;;;;;;;;;;5091871;28;20081;-86
2022/04/27 06:57:05;;;;;;;10.35;7.78;;;;;;;;;;5091723;28;20032;-84
2022/04/27 06:59:31;;;;;;;10.07;6.80;;;;;;;;;;5089976;28;20027;-86
2022/04/27 07:01:56;;;;;;;9.75;7.40;;;;;;;;;;5090328;28;20055;-86
2022/04/27 07:04:22;;;;;;;12.20;7.13;;;;;;;;;;5091699;28;20019;-86
2022/04/27 07:06:47;;;;;;;11.07;6.82;;;;;;;;;;5090279;28;20062;-86
2022/04/27 07:09:13;;;;;;;12.38;7.05;;;;;;;;;;5090084;28;20054;-85
2022/04/27 07:11:42;;;;;;;9.52;6.50;;;;;;;;;;5091546;28;20459;-85
2022/04/27 07:14:08;;;;;;;11.60;7.07;;;;;;;;;;5090342;28;20040;-85
2022/04/27 07:16:34;;;;;;;11.50;8.27;;;;;;;;;;5090315;28;20028;-86
2022/04/27 07:18:59;;;;;;;12.02;6.60;;;;;;;;;;5089810;28;20024;-86
2022/04/27 07:21:25;;;;;;;10.25;6.75;;;;;;;;;;5091380;28;20055;-87
2022/04/27 07:23:51;;;;;;;9.43;6.78;;;;;;;;;;5090106;28;20020;-86
2022/04/27 07:26:16;;;;;;;13.32;7.15;;;;;;;;;;5093154;28;20032;-85
2022/04/27 07:28:42;;;;;;;11.15;7.00;;;;;;;;;;5090772;28;20032;-86
2022/04/27 07:31:08;;;;;;;8.93;6.80;;;;;;;;;;5093521;28;20036;-86
2022/04/27 07:33:34;;;;;;;12.15;6.82;;;;;;;;;;5093148;28;20027;-85
2022/04/27 07:36:00;;;;;;;8.77;6.40;;;;;;;;;;5090085;28;20024;-85
2022/04/27 07:38:27;;;;;;;12.13;7.15;;;;;;;;;;5093204;28;20047;-86
2022/04/27 07:40:53;;;;;;;10.65;6.82;;;;;;;;;;5094590;28;20031;-87
2022/04/27 07:43:18;;;;;;;10.35;7.65;;;;;;;;;;5094583;28;20020;-84
2022/04/27 07:45:44;;;;;;;11.13;7.18;;;;;;;;;;5092473;28;20027;-86
2022/04/27 07:48:10;;;;;;;13.15;6.93;;;;;;;;;;5090628;28;20047;-85
2022/04/27 07:50:36;;;;;;;11.65;6.70;;;;;;;;;;5094434;28;20024;-84
2022/04/27 07:53:02;;;;;;;12.15;6.57;;;;;;;;;;5093122;28;20024;-87
2022/04/27 07:55:31;;;;;;;10.43;7.25;;;;;;;;;;5093282;28;20024;-86
2022/04/27 07:57:57;;;;;;;8.13;6.28;;;;;;;;;;5088291;28;20038;-83
2022/04/27 08:00:23;;;;;;;9.52;7.05;;;;;;;;;;5092941;28;20397;-86
2022/04/27 08:02:48;;;;;;;7.03;6.00;;;;;;;;;;5090757;28;20032;-84
2022/04/27 08:05:17;;;;;;;12.32;6.88;;;;;;;;;;5092644;28;20475;-87
2022/04/27 08:07:44;;;;;;;7.72;6.47;;;;;;;;;;5094104;28;20042;-85
2022/04/27 08:10:11;;;;;;;7.43;6.03;;;;;;;;;;5091416;28;20038;-85
2022/04/27 08:12:39;;;;;;;11.07;6.32;;;;;;;;;;5092757;28;20020;-86
2022/04/27 08:15:05;;;;;;;9.30;6.47;;;;;;;;;;5092534;28;20016;-86
2022/04/27 08:17:31;;;;;;;9.63;6.10;;;;;;;;;;5092954;28;20035;-86
2022/04/27 08:21:13;;;;;;;8.30;5.68;;;;;;;;;;5092705;28;20357;-86
2022/04/27 08:22:42;;;;;;;8.02;6.03;;;;;;;;;;5090424;28;20036;-85
2022/04/27 08:25:08;;;;;;;8.32;5.90;;;;;;;;;;5092562;28;20150;-87
2022/04/27 08:27:33;;;;;;;9.32;6.43;;;;;;;;;;5092202;28;20038;-85
2022/04/27 08:29:58;;;;;;;8.40;5.32;;;;;;;;;;5092347;28;20024;-85
2022/04/27 08:32:24;;;;;;;11.40;6.53;;;;;;;;;;5092287;28;20027;-86
2022/04/27 08:34:50;;;;;;;9.43;5.55;;;;;;;;;;5092122;28;20024;-85
2022/04/27 08:37:15;;;;;;;9.90;5.47;;;;;;;;;;5091510;28;20479;-85
2022/04/27 08:39:40;;;;;;;7.53;5.57;;;;;;;;;;5093820;28;20020;-86
2022/04/27 08:42:08;;;;;;;6.82;5.43;;;;;;;;;;5092144;28;20047;-86
2022/04/27 08:44:35;;;;;;;8.48;5.35;;;;;;;;;;5092006;28;20032;-88
2022/04/27 08:47:04;;;;;;;6.07;5.00;;;;;;;;;;5090250;28;20073;-86
2022/04/27 08:49:33;;;;;;;7.23;4.83;;;;;;;;;;5093252;28;20028;-86
2022/04/27 08:52:00;;;;;;;5.05;4.15;;;;;;;;;;5093514;28;20099;-86
2022/04/27 08:54:27;;;;;;;6.13;4.03;;;;;;;;;;5091672;28;20110;-87
2022/04/27 08:56:53;;;;;;;5.38;3.60;;;;;;;;;;5092135;28;20371;-86
2022/04/27 08:59:19;;;;;;;5.15;3.33;;;;;;;;;;5093295;28;20016;-86
2022/04/27 09:01:44;;;;;;;6.85;4.05;;;;;;;;;;5093463;28;20036;-87
2022/04/27 09:04:15;;;;;;;4.82;3.65;;;;;;;;;;5092174;28;20051;-86
2022/04/27 09:06:41;;;;;;;8.00;2.72;;;;;;;;;;5093388;28;20020;-89
2022/04/27 09:09:13;;;;;;;8.18;3.25;;;;;;;;;;5093047;28;20491;-86
2022/04/27 09:11:39;;;;;;;5.57;3.50;;;;;;;;;;5084140;28;20028;-86
2022/04/27 09:14:09;;;;;;;7.55;4.05;;;;;;;;;;5092811;28;20024;-86
2022/04/27 09:22:26;;;;;;;7.40;3.63;;;;;;;;;;5093043;28;20034;-85
2022/04/27 09:24:53;;;;;;;8.10;4.97;;;;;;;;;;5092814;28;20672;-86
2022/04/27 09:27:26;;;;;;;5.50;3.47;;;;;;;;;;5092525;28;20031;-86
2022/04/27 09:29:55;;;;;;;7.82;3.58;;;;;;;;;;5091568;28;20024;-85
2022/04/27 09:32:21;;;;;;;6.30;3.83;;;;;;;;;;5092824;28;20111;-87
2022/04/27 09:34:48;;;;;;;4.25;3.10;;;;;;;;;;5091268;28;20103;-86
2022/04/27 09:37:17;;;;;;;5.97;3.33;;;;;;;;;;5092875;28;20058;-86
2022/04/27 09:39:43;;;;;;;5.10;3.28;;;;;;;;;;5090376;28;20020;-86
2022/04/27 09:42:10;;;;;;;5.63;3.72;;;;;;;;;;5091487;28;20383;-86
2022/04/27 09:44:37;;;;;;;4.88;3.97;;;;;;;;;;5090756;28;20039;-87
2022/04/27 09:47:04;;;;;;;7.70;3.40;;;;;;;;;;5092328;28;20028;-88
2022/04/27 09:49:37;;;;;;;4.70;3.28;;;;;;;;;;5090767;28;20028;-88
2022/04/27 09:52:05;;;;;;;5.82;3.00;;;;;;;;;;5091104;28;20062;-86
2022/04/27 09:54:34;;;;;;;8.02;3.60;;;;;;;;;;5090891;28;20038;-87
2022/04/27 09:57:05;;;;;;;6.05;3.35;;;;;;;;;;5091346;28;20055;-86
2022/04/27 09:59:35;;;;;;;9.55;3.70;;;;;;;;;;5089556;28;20107;-85
2022/04/27 10:02:05;;;;;;;7.32;3.78;;;;;;;;;;5089527;28;20436;-88
2022/04/27 10:04:31;;;;;;;8.15;4.03;;;;;;;;;;5090925;28;20459;-80
2022/04/27 10:07:01;;;;;;;8.95;3.67;;;;;;;;;;5091722;28;20020;-84
2022/04/27 10:09:28;;;;;;;8.55;3.95;;;;;;;;;;5091759;28;20046;-87
2022/04/27 10:12:03;;;;;;;7.95;3.55;;;;;;;;;;5090227;28;20119;-88
2022/04/27 10:14:29;;;;;;;7.30;3.65;;;;;;;;;;5091984;28;20020;-86
2022/04/27 10:16:56;;;;;;;5.55;2.88;;;;;;;;;;5091938;28;20043;-87
2022/04/27 10:19:22;;;;;;;6.60;3.00;;;;;;;;;;5089210;28;20039;-88
2022/04/27 10:22:00;;;;;;;4.57;3.15;;;;;;;;;;5083328;28;20028;-86
2022/04/27 10:24:34;;;;;;;8.18;3.90;;;;;;;;;;5081450;28;20157;-84
2022/04/27 10:27:20;;;;;;;9.95;3.05;;;;;;;;;;5086067;28;20475;-85
2022/04/27 10:30:07;;;;;;;6.90;3.60;;;;;;;;;;5086763;28;20082;-86
2022/04/27 10:32:43;;;;;;;5.30;3.08;;;;;;;;;;5090659;28;20055;-84
2022/04/27 10:35:12;;;;;;;4.60;3.20;;;;;;;;;;5083994;28;20036;-84
2022/04/27 10:37:52;;;;;;;4.35;3.00;;;;;;;;;;5086013;28;20056;-86
2022/04/27 10:40:37;;;;;;;4.05;2.92;;;;;;;;;;5085041;28;20032;-84
2022/04/27 10:43:06;;;;;;;8.13;3.30;;;;;;;;;;5085132;28;20483;-87
2022/04/27 10:45:34;;;;;;;5.80;3.53;;;;;;;;;;5087069;28;20368;-84
2022/04/27 10:48:03;;;;;;;5.95;3.08;;;;;;;;;;5090096;28;20103;-86
2022/04/27 10:50:30;;;;;;;4.78;2.90;;;;;;;;;;5090839;28;20030;-86
2022/04/27 10:53:15;;;;;;;5.88;2.55;;;;;;;;;;5087261;28;20058;-85
2022/04/27 10:55:47;;;;;;;7.43;3.35;;;;;;;;;;5088268;28;20016;-85
2022/04/27 10:58:15;;;;;;;4.80;2.92;;;;;;;;;;5085462;28;20028;-84
2022/04/27 11:00:59;;;;;;;6.38;2.90;;;;;;;;;;5090685;28;20113;-85
2022/04/27 11:03:26;;;;;;;5.93;2.60;;;;;;;;;;5091859;28;20594;-86
2022/04/27 11:06:12;;;;;;;6.00;2.90;;;;;;;;;;5091736;28;20036;-87
2022/04/27 11:09:12;;;;;;;5.93;2.80;;;;;;;;;;5090253;28;20103;-86
2022/04/27 11:11:52;;;;;;;4.43;2.60;;;;;;;;;;5092203;28;20032;-85
2022/04/27 11:14:27;;;;;;;6.30;2.90;;;;;;;;;;5084096;28;20024;-85
2022/04/27 11:16:53;;;;;;;3.67;2.40;;;;;;;;;;5092155;28;20038;-84
2022/04/27 11:19:18;;;;;;;11.40;5.72;;;;;;;;;;5091363;28;20020;-86
2022/04/27 11:21:45;;;;;;;10.70;4.60;;;;;;;;;;5091898;28;20337;-84
2022/04/27 11:24:15;;;;;;;6.47;3.90;;;;;;;;;;5088769;28;20761;-87
2022/04/27 11:26:43;;;;;;;4.00;2.75;;;;;;;;;;5093462;28;20069;-87
2022/04/27 11:29:10;;;;;;;3.40;2.90;;;;;;;;;;5093044;28;20420;-90
2022/04/27 11:31:35;;;;;;;10.85;2.80;;;;;;;;;;5091986;28;20072;-85
2022/04/27 11:34:01;;;;;;;7.35;2.78;;;;;;;;;;5089806;28;20023;-85
2022/04/27 11:36:28;;;;;;;7.03;2.42;;;;;;;;;;5092645;28;20063;-86
2022/04/27 11:38:55;;;;;;;6.57;2.63;;;;;;;;;;5092593;28;20047;-85
2022/04/27 11:41:25;;;;;;;5.75;2.38;;;;;;;;;;5091325;28;20024;-86
2022/04/27 11:43:54;;;;;;;4.25;2.80;;;;;;;;;;5091696;28;20035;-86
2022/04/27 11:46:19;;;;;;;3.65;2.60;;;;;;;;;;5091541;28;20123;-88
2022/04/27 11:48:51;;;;;;;4.00;2.40;;;;;;;;;;5090740;28;20574;-81
2022/04/27 11:51:16;;;;;;;2.60;2.38;;;;;;;;;;5091429;28;20454;-83
2022/04/27 11:53:47;;;;;;;4.40;2.13;;;;;;;;;;5090824;28;20028;-82
2022/04/27 11:56:17;;;;;;;4.03;2.40;;;;;;;;;;5088158;28;20039;-81
2022/04/27 11:58:46;;;;;;;;;;;;;;;;;;5089573;28;20028;-81
2022/04/27 12:01:20;;;;;;;7.95;3.05;;;;;;;;;;5091343;28;20359;-81
2022/04/27 12:03:45;;;;;;;11.20;3.20;;;;;;;;;;5089254;28;20028;-81
2022/04/27 12:06:18;;;;;;;4.07;2.10;;;;;;;;;;5088636;28;20031;-82
2022/04/27 12:08:43;;;;;;;7.03;2.33;;;;;;;;;;5090671;28;20028;-83
2022/04/27 12:11:09;;;;;;;6.38;2.45;;;;;;;;;;5089793;28;20032;-81
2022/04/27 12:13:35;;;;;;;3.00;2.08;;;;;;;;;;5089241;28;20040;-82
2022/04/27 12:16:01;;;;;;;5.20;2.85;;;;;;;;;;5089500;28;20113;-81
2022/04/27 12:18:31;;;;;;;2.67;1.80;;;;;;;;;;5087075;28;20070;-81
2022/04/27 12:20:58;;;;;;;5.25;2.17;;;;;;;;;;5085333;28;20024;-81
2022/04/27 12:23:29;;;;;;;5.00;2.17;;;;;;;;;;5091930;28;20016;-80
2022/04/27 12:25:56;;;;;;;5.38;2.00;;;;;;;;;;5087282;28;20032;-82
2022/04/27 12:28:29;;;;;;;3.80;1.92;;;;;;;;;;5087224;28;20098;-82
2022/04/27 12:30:56;;;;;;;2.38;1.52;;;;;;;;;;5086394;28;20487;-81
2022/04/27 12:33:24;;;;;;;4.18;2.05;;;;;;;;;;5085186;28;20060;-82
2022/04/27 12:39:02;;;;;;;5.35;2.00;;;;;;;;;;5086539;28;20055;-82
2022/04/27 12:41:34;;;;;;;6.07;2.00;;;;;;;;;;5089963;28;20027;-83
2022/04/27 12:44:10;;;;;;;3.88;2.00;;;;;;;;;;5089570;28;20024;-80
2022/04/27 12:46:38;;;;;;;4.22;1.92;;;;;;;;;;5091891;28;20504;-81
2022/04/27 12:49:06;;;;;;;5.90;2.22;;;;;;;;;;5088438;28;20050;-81
2022/04/27 12:51:35;;;;;;;4.45;1.80;;;;;;;;;;5086767;28;20016;-81
2022/04/27 12:54:04;;;;;;;6.50;2.10;;;;;;;;;;5085050;28;20021;-81
2022/04/27 12:56:32;;;;;;;4.63;2.10;;;;;;;;;;5089343;28;20024;-82
2022/04/27 12:59:26;;;;;;;4.18;2.50;;;;;;;;;;5089171;28;20020;-81
2022/04/27 13:01:58;;;;;;;3.92;1.77;;;;;;;;;;5064735;28;20029;-88
2022/04/27 13:04:24;;;;;;;6.75;2.10;;;;;;;;;;5069586;28;20098;-88
2022/04/27 13:06:52;;;;;;;4.32;2.10;;;;;;;;;;5069898;28;20396;-87
2022/04/27 13:12:02;;;;;;;5.13;1.90;;;;;;;;;;5070360;28;20153;-86
2022/04/27 13:14:28;;;;;;;5.35;2.03;;;;;;;;;;5053296;28;20020;-84
2022/04/27 13:16:55;;;;;;;4.40;2.40;;;;;;;;;;5068868;28;20036;-85
2022/04/27 13:20:12;;;;;;;2.92;2.10;;;;;;;;;;5051036;28;20138;-87
2022/04/27 13:22:41;;;;;;;4.82;1.77;;;;;;;;;;5063643;28;20060;-86
2022/04/27 13:38:59;;;;;;;4.20;2.55;;;;;;;;;;5077603;28;20106;-88
2022/04/27 13:41:25;;;;;;;8.18;2.85;;;;;;;;;;5090573;28;20106;-86
2022/04/27 13:43:51;;;;;;;3.28;2.15;;;;;;;;;;5088451;28;20028;-88
2022/04/27 13:46:17;;;;;;;6.10;3.00;;;;;;;;;;5090109;28;20028;-89
2022/04/27 13:48:44;;;;;;;4.72;2.35;;;;;;;;;;5089917;28;20035;-87
2022/04/27 13:51:17;;;;;;;3.70;2.50;;;;;;;;;;5092576;28;20069;-87
2022/04/27 13:53:43;;;;;;;2.83;2.03;;;;;;;;;;5092579;28;20035;-87
2022/04/27 13:56:08;;;;;;;5.63;2.15;;;;;;;;;;5085527;28;20032;-85
2022/04/27 13:58:35;;;;;;;8.10;2.67;;;;;;;;;;5092056;28;20047;-88
2022/04/27 14:01:01;;;;;;;5.15;2.42;;;;;;;;;;5092233;28;20349;-87
2022/04/27 14:03:26;;;;;;;3.47;2.50;;;;;;;;;;5090850;28;20034;-87
2022/04/27 14:05:52;;;;;;;5.57;2.38;;;;;;;;;;5089636;28;20028;-86
2022/04/27 14:08:18;;;;;;;4.47;2.28;;;;;;;;;;5087505;28;20032;-84
2022/04/27 14:10:43;;;;;;;5.32;1.85;;;;;;;;;;5090545;28;20059;-87
2022/04/27 14:13:14;;;;;;;7.38;2.63;;;;;;;;;;5091662;28;20114;-89
2022/04/27 14:18:09;;;;;;;3.35;1.90;;;;;;;;;;5090087;28;20432;-86
2022/04/27 14:18:32;;;;;;;3.30;1.90;;;;;;;;;;5090220;28;20057;-85
2022/04/27 14:20:59;;;;;;;8.18;3.05;;;;;;;;;;5090644;28;20035;-88
2022/04/27 14:23:26;;;;;;;9.63;4.35;;;;;;;;;;5091401;28;20047;-88
2022/04/27 14:25:52;;;;;;;8.55;4.63;;;;;;;;;;5089817;28;20028;-88
2022/04/27 14:28:18;;;;;;;7.45;4.25;;;;;;;;;;5091578;28;20024;-89
2022/04/27 14:30:44;;;;;;;20.30;11.05;;;;;;;;;;5090838;28;20049;-87
2022/04/27 14:33:11;;;;;;;13.57;7.25;;;;;;;;;;5092171;28;20020;-89
2022/04/27 14:35:38;;;;;;;7.95;4.43;;;;;;;;;;5091555;28;20024;-84
2022/04/27 14:38:09;;;;;;;20.85;11.10;;;;;;;;;;5093623;28;20141;-87
2022/04/27 14:40:35;;;;;;;9.48;3.92;;;;;;;;;;5091995;28;20024;-86
2022/04/27 14:43:04;;;;;;;6.97;4.03;;;;;;;;;;5095852;28;20028;-87
2022/04/27 14:45:35;;;;;;;;;;;;;;;;;;5097082;28;20028;-85
2022/04/27 14:48:01;;;;;;;7.90;3.05;;;;;;;;;;5093779;28;19950;-85
2022/04/27 14:50:27;;;;;;;3.17;2.08;;;;;;;;;;5092224;28;21740;-83
2022/04/27 14:52:53;;;;;;;4.35;2.88;;;;;;;;;;5093859;28;20107;-87
2022/04/27 14:55:19;;;;;;;5.10;2.20;;;;;;;;;;5090990;28;20020;-91
2022/04/27 14:57:45;;;;;;;3.42;2.00;;;;;;;;;;5093231;28;20031;-85
2022/04/27 15:00:11;;;;;;;3.25;1.60;;;;;;;;;;5095087;28;20484;-85
2022/04/27 15:02:37;;;;;;;6.18;2.10;;;;;;;;;;5092302;28;20857;-87
2022/04/27 15:05:03;;;;;;;4.97;2.00;;;;;;;;;;5093586;28;20020;-88
2022/04/27 15:07:29;;;;;;;3.92;2.00;;;;;;;;;;5092599;28;20028;-87
2022/04/27 15:09:54;;;;;;;5.75;2.70;;;;;;;;;;5094383;28;20039;-87
2022/04/27 15:12:20;;;;;;;5.82;2.20;;;;;;;;;;5090970;28;20102;-87
2022/04/27 15:14:46;;;;;;;4.88;2.38;;;;;;;;;;5092881;28;20019;-87
2022/04/27 15:17:11;;;;;;;7.50;3.35;;;;;;;;;;5096410;28;20066;-85
2022/04/27 15:19:37;;;;;;;6.57;2.50;;;;;;;;;;5094412;28;20081;-85
2022/04/27 15:24:47;;;;;;;6.07;2.10;;;;;;;;;;5092959;28;20426;-86
2022/04/27 15:27:14;;;;;;;5.78;2.20;;;;;;;;;;5092975;28;20020;-87